Pagina principale
METAR-TAF:

METAR-TAF

Aeroporti :

Annecy, Francia

latitudine: 45-55-45N, longitudine: 006-05-56E, altezza: 463 m

Osservazione

Il bollettino è stato emesso 33 minuti fa, alle 12:30 UTC
Vento 1 kt da direzioni variabili
Temperature 6°C
Umidità 81%
Pressione 1008 hPa
Visibilità 10 km o più
Cielo coperto ad un'altezza di 1400 ft

METAR: LFLP 211230Z AUTO VRB01KT 9999 OVC014 06/03 Q1008 NOSIG

Ora: 14:03 (13:03 UTC)

Previsione

Il bollettino è stato emesso 5 ore e 3 minuti fa, alle 08:00 UTC
Previsione valida dal 21 alle 09 UTC al 22 alle 09 UTC
Vento 4 kt da nord-est
Visibilità: 8000 m
Cielo coperto ad un'altezza di 800 ft
Evoluzione graduale
dal 21 alle 10 UTC al 21 alle 12 UTC
Nuvoloso ad un'altezza di 1200 ft
Temporaneamente
dal 21 alle 12 UTC al 21 alle 18 UTC

TAF: LFLP 210800Z 2109/2209 04004KT 8000 OVC008 BECMG 2110/2112 BKN012 TEMPO 2112/2118 NSC

Osservazioni e previsioni meteorologiche di più di 4000 aeroporti (messaggi METAR e TAF).

Le stazioni disponibili sono rappresentate dai dischi gialli e rossi sulla carta.

Puntare il mouse per vedere il nome della stazione.

Clicca sopra per visualizzare le osservazioni e previsioni meteorologiche.

Per cambiare la mappa : fare clic sui pulsanti verdi con una croce nera per ingrandire, il pulsante verde con un trattino per diminuire, o sulla freccia verde per le mappe adiacenti.


METAR-TAF: